sensor_id;sensor_type;location;lat;lon;timestamp;temperature;humidity
34522;DHT22;25561;48.888;8.736;2022-12-07T06:50:16;2.70;99.90
34522;DHT22;25561;48.888;8.736;2022-12-07T06:53:18;2.90;99.90
34522;DHT22;25561;48.888;8.736;2022-12-07T06:56:20;3.30;99.90
34522;DHT22;25561;48.888;8.736;2022-12-07T06:59:22;3.50;99.90
34522;DHT22;25561;48.888;8.736;2022-12-07T07:02:24;3.70;99.90
34522;DHT22;25561;48.888;8.736;2022-12-07T07:05:26;3.60;99.90
34522;DHT22;25561;48.888;8.736;2022-12-07T07:08:28;3.70;99.90
34522;DHT22;25561;48.888;8.736;2022-12-07T07:11:30;3.70;99.90
34522;DHT22;25561;48.888;8.736;2022-12-07T07:14:33;3.60;99.90
34522;DHT22;25561;48.888;8.736;2022-12-07T07:17:36;3.80;99.90
34522;DHT22;25561;48.888;8.736;2022-12-07T07:20:40;3.70;99.90
34522;DHT22;25561;48.888;8.736;2022-12-07T07:23:44;3.70;99.90
34522;DHT22;25561;48.888;8.736;2022-12-07T07:26:47;3.70;99.90
34522;DHT22;25561;48.888;8.736;2022-12-07T07:29:50;3.70;99.90
34522;DHT22;25561;48.888;8.736;2022-12-07T07:32:59;3.70;99.90
34522;DHT22;25561;48.888;8.736;2022-12-07T07:36:01;3.50;99.90
34522;DHT22;25561;48.888;8.736;2022-12-07T07:39:10;3.40;99.90
34522;DHT22;25561;48.888;8.736;2022-12-07T07:42:17;3.60;99.90
34522;DHT22;25561;48.888;8.736;2022-12-07T07:45:21;3.60;99.90
34522;DHT22;25561;48.888;8.736;2022-12-07T07:48:23;3.60;99.90
34522;DHT22;25561;48.888;8.736;2022-12-07T07:51:28;3.70;99.90
34522;DHT22;25561;48.888;8.736;2022-12-07T07:54:37;3.90;99.90
34522;DHT22;25561;48.888;8.736;2022-12-07T07:58:00;3.80;99.90
34522;DHT22;25561;48.888;8.736;2022-12-07T08:01:05;3.90;99.90
34522;DHT22;25561;48.888;8.736;2022-12-07T08:04:07;3.90;99.90
34522;DHT22;25561;48.888;8.736;2022-12-07T08:07:10;3.90;99.90
34522;DHT22;25561;48.888;8.736;2022-12-07T08:10:13;4.00;99.90
34522;DHT22;25561;48.888;8.736;2022-12-07T08:13:16;4.00;99.90
34522;DHT22;25561;48.888;8.736;2022-12-07T08:16:18;4.20;99.90
34522;DHT22;25561;48.888;8.736;2022-12-07T08:19:20;4.20;99.90
34522;DHT22;25561;48.888;8.736;2022-12-07T08:22:23;4.40;99.90
34522;DHT22;25561;48.888;8.736;2022-12-07T08:25:26;4.50;99.90
34522;DHT22;25561;48.888;8.736;2022-12-07T08:28:29;4.50;99.90
34522;DHT22;25561;48.888;8.736;2022-12-07T08:31:33;4.80;99.90
34522;DHT22;25561;48.888;8.736;2022-12-07T08:34:35;4.90;99.90
34522;DHT22;25561;48.888;8.736;2022-12-07T08:37:39;5.10;99.90
34522;DHT22;25561;48.888;8.736;2022-12-07T08:40:41;5.10;99.90
34522;DHT22;25561;48.888;8.736;2022-12-07T08:43:44;5.20;99.90
34522;DHT22;25561;48.888;8.736;2022-12-07T08:46:52;5.40;99.90
34522;DHT22;25561;48.888;8.736;2022-12-07T08:49:56;5.40;99.90
34522;DHT22;25561;48.888;8.736;2022-12-07T08:53:00;5.40;99.90
34522;DHT22;25561;48.888;8.736;2022-12-07T08:56:05;5.10;99.90
34522;DHT22;25561;48.888;8.736;2022-12-07T08:59:08;4.90;99.90
34522;DHT22;25561;48.888;8.736;2022-12-07T09:02:11;4.60;99.90
34522;DHT22;25561;48.888;8.736;2022-12-07T09:05:15;4.90;99.90
34522;DHT22;25561;48.888;8.736;2022-12-07T09:08:18;5.20;99.90
34522;DHT22;25561;48.888;8.736;2022-12-07T09:11:20;5.30;99.90
34522;DHT22;25561;48.888;8.736;2022-12-07T09:14:29;5.00;99.90
34522;DHT22;25561;48.888;8.736;2022-12-07T09:17:32;5.00;99.90
34522;DHT22;25561;48.888;8.736;2022-12-07T09:20:35;4.70;99.90
34522;DHT22;25561;48.888;8.736;2022-12-07T09:23:37;4.50;99.90
34522;DHT22;25561;48.888;8.736;2022-12-07T09:26:39;4.50;99.90
34522;DHT22;25561;48.888;8.736;2022-12-07T09:29:42;4.50;99.90
34522;DHT22;25561;48.888;8.736;2022-12-07T09:32:45;4.90;99.90
34522;DHT22;25561;48.888;8.736;2022-12-07T09:35:48;4.80;99.90
34522;DHT22;25561;48.888;8.736;2022-12-07T09:38:51;4.70;99.90
34522;DHT22;25561;48.888;8.736;2022-12-07T09:41:53;4.30;99.90
34522;DHT22;25561;48.888;8.736;2022-12-07T09:44:55;4.50;99.90
34522;DHT22;25561;48.888;8.736;2022-12-07T09:47:58;4.40;99.90
34522;DHT22;25561;48.888;8.736;2022-12-07T09:51:01;4.20;99.90
34522;DHT22;25561;48.888;8.736;2022-12-07T09:54:04;4.10;99.90
34522;DHT22;25561;48.888;8.736;2022-12-07T09:57:08;4.20;99.90
34522;DHT22;25561;48.888;8.736;2022-12-07T10:00:17;4.30;99.90
34522;DHT22;25561;48.888;8.736;2022-12-07T10:03:20;4.40;99.90
34522;DHT22;25561;48.888;8.736;2022-12-07T10:06:22;4.80;99.90
34522;DHT22;25561;48.888;8.736;2022-12-07T10:09:24;4.90;99.90
34522;DHT22;25561;48.888;8.736;2022-12-07T10:12:26;4.90;99.90
34522;DHT22;25561;48.888;8.736;2022-12-07T10:15:49;4.70;99.90
34522;DHT22;25561;48.888;8.736;2022-12-07T10:18:53;4.50;99.90
34522;DHT22;25561;48.888;8.736;2022-12-07T10:25:09;4.10;99.90
34522;DHT22;25561;48.888;8.736;2022-12-07T10:28:18;4.20;99.90
34522;DHT22;25561;48.888;8.736;2022-12-07T10:31:22;4.50;99.90
34522;DHT22;25561;48.888;8.736;2022-12-07T10:34:29;4.60;99.90
34522;DHT22;25561;48.888;8.736;2022-12-07T10:37:40;4.70;99.90
34522;DHT22;25561;48.888;8.736;2022-12-07T10:40:42;4.80;99.90
34522;DHT22;25561;48.888;8.736;2022-12-07T10:43:50;5.00;99.90
34522;DHT22;25561;48.888;8.736;2022-12-07T10:47:30;5.00;99.90
34522;DHT22;25561;48.888;8.736;2022-12-07T10:51:20;5.10;99.90
34522;DHT22;25561;48.888;8.736;2022-12-07T11:02:17;5.00;99.90
34522;DHT22;25561;48.888;8.736;2022-12-07T11:11:49;5.00;99.90
34522;DHT22;25561;48.888;8.736;2022-12-07T11:18:27;5.00;99.90
34522;DHT22;25561;48.888;8.736;2022-12-07T11:21:48;5.00;99.90
34522;DHT22;25561;48.888;8.736;2022-12-07T11:25:21;4.90;99.90
34522;DHT22;25561;48.888;8.736;2022-12-07T11:35:54;5.10;99.90
34522;DHT22;25561;48.888;8.736;2022-12-07T11:39:04;5.00;99.90
34522;DHT22;25561;48.888;8.736;2022-12-07T11:42:14;5.00;99.90
34522;DHT22;25561;48.888;8.736;2022-12-07T11:45:31;5.00;99.90
34522;DHT22;25561;48.888;8.736;2022-12-07T11:48:42;5.00;99.90
34522;DHT22;25561;48.888;8.736;2022-12-07T11:51:49;5.00;99.90
34522;DHT22;25561;48.888;8.736;2022-12-07T11:54:53;5.20;99.90
34522;DHT22;25561;48.888;8.736;2022-12-07T11:58:08;5.20;99.90
34522;DHT22;25561;48.888;8.736;2022-12-07T12:04:59;5.30;99.90
34522;DHT22;25561;48.888;8.736;2022-12-07T12:08:14;5.40;99.90
34522;DHT22;25561;48.888;8.736;2022-12-07T12:12:07;5.60;99.90
34522;DHT22;25561;48.888;8.736;2022-12-07T12:15:53;5.70;99.90
34522;DHT22;25561;48.888;8.736;2022-12-07T12:19:15;5.70;99.90
34522;DHT22;25561;48.888;8.736;2022-12-07T12:22:20;5.80;99.90
34522;DHT22;25561;48.888;8.736;2022-12-07T12:25:28;5.60;99.90
34522;DHT22;25561;48.888;8.736;2022-12-07T12:28:39;5.70;99.90
34522;DHT22;25561;48.888;8.736;2022-12-07T12:32:18;5.80;99.90
34522;DHT22;25561;48.888;8.736;2022-12-07T12:35:37;6.10;99.90
34522;DHT22;25561;48.888;8.736;2022-12-07T12:42:18;5.10;99.90
34522;DHT22;25561;48.888;8.736;2022-12-07T12:45:29;5.30;99.90
34522;DHT22;25561;48.888;8.736;2022-12-07T12:48:37;5.50;99.90
34522;DHT22;25561;48.888;8.736;2022-12-07T12:51:40;5.60;99.90
34522;DHT22;25561;48.888;8.736;2022-12-07T13:01:42;5.20;99.90
34522;DHT22;25561;48.888;8.736;2022-12-07T13:05:01;4.90;99.90
34522;DHT22;25561;48.888;8.736;2022-12-07T13:08:15;4.90;99.90
34522;DHT22;25561;48.888;8.736;2022-12-07T13:11:39;5.10;99.90
34522;DHT22;25561;48.888;8.736;2022-12-07T13:14:56;5.00;99.90
34522;DHT22;25561;48.888;8.736;2022-12-07T13:18:39;5.30;99.90
34522;DHT22;25561;48.888;8.736;2022-12-07T13:24:31;5.30;99.90
34522;DHT22;25561;48.888;8.736;2022-12-07T13:27:37;5.30;99.90
34522;DHT22;25561;48.888;8.736;2022-12-07T13:30:47;5.20;99.90
34522;DHT22;25561;48.888;8.736;2022-12-07T13:33:51;5.10;99.90
34522;DHT22;25561;48.888;8.736;2022-12-07T13:36:54;5.20;99.90
34522;DHT22;25561;48.888;8.736;2022-12-07T13:39:58;5.40;99.90
34522;DHT22;25561;48.888;8.736;2022-12-07T13:43:04;5.10;99.90
34522;DHT22;25561;48.888;8.736;2022-12-07T13:46:14;5.20;99.90
34522;DHT22;25561;48.888;8.736;2022-12-07T13:49:23;5.20;99.90
34522;DHT22;25561;48.888;8.736;2022-12-07T13:52:27;4.80;99.90
34522;DHT22;25561;48.888;8.736;2022-12-07T13:55:30;4.70;99.90
34522;DHT22;25561;48.888;8.736;2022-12-07T13:58:33;4.80;99.90
34522;DHT22;25561;48.888;8.736;2022-12-07T14:01:35;4.60;99.90
34522;DHT22;25561;48.888;8.736;2022-12-07T14:04:38;4.50;99.90
34522;DHT22;25561;48.888;8.736;2022-12-07T14:08:02;4.60;99.90
34522;DHT22;25561;48.888;8.736;2022-12-07T14:11:04;4.90;99.90
34522;DHT22;25561;48.888;8.736;2022-12-07T14:14:15;4.70;99.90
34522;DHT22;25561;48.888;8.736;2022-12-07T14:17:20;4.70;99.90
34522;DHT22;25561;48.888;8.736;2022-12-07T14:20:36;4.90;99.90
34522;DHT22;25561;48.888;8.736;2022-12-07T14:23:39;5.00;99.90
34522;DHT22;25561;48.888;8.736;2022-12-07T14:26:41;4.90;99.90
34522;DHT22;25561;48.888;8.736;2022-12-07T14:29:43;4.80;99.90
34522;DHT22;25561;48.888;8.736;2022-12-07T14:32:48;4.70;99.90
34522;DHT22;25561;48.888;8.736;2022-12-07T14:35:52;4.70;99.90
34522;DHT22;25561;48.888;8.736;2022-12-07T14:38:59;4.80;99.90
34522;DHT22;25561;48.888;8.736;2022-12-07T14:42:01;4.70;99.90
34522;DHT22;25561;48.888;8.736;2022-12-07T14:45:03;4.60;99.90
34522;DHT22;25561;48.888;8.736;2022-12-07T14:48:05;4.50;99.90
34522;DHT22;25561;48.888;8.736;2022-12-07T14:51:27;4.50;99.90
34522;DHT22;25561;48.888;8.736;2022-12-07T14:54:49;4.30;99.90
34522;DHT22;25561;48.888;8.736;2022-12-07T14:57:51;4.20;99.90
34522;DHT22;25561;48.888;8.736;2022-12-07T15:00:52;4.10;99.90
34522;DHT22;25561;48.888;8.736;2022-12-07T15:03:54;4.10;99.90
34522;DHT22;25561;48.888;8.736;2022-12-07T15:07:00;4.20;99.90
34522;DHT22;25561;48.888;8.736;2022-12-07T15:10:03;4.30;99.90
34522;DHT22;25561;48.888;8.736;2022-12-07T15:13:06;4.20;99.90
34522;DHT22;25561;48.888;8.736;2022-12-07T15:16:27;4.20;99.90
34522;DHT22;25561;48.888;8.736;2022-12-07T15:19:49;4.10;99.90
34522;DHT22;25561;48.888;8.736;2022-12-07T15:22:51;4.20;99.90
34522;DHT22;25561;48.888;8.736;2022-12-07T15:25:53;4.20;99.90
34522;DHT22;25561;48.888;8.736;2022-12-07T15:28:54;4.30;99.90
34522;DHT22;25561;48.888;8.736;2022-12-07T15:31:56;4.20;99.90
34522;DHT22;25561;48.888;8.736;2022-12-07T15:34:59;4.20;99.90
34522;DHT22;25561;48.888;8.736;2022-12-07T15:38:01;4.20;99.90
34522;DHT22;25561;48.888;8.736;2022-12-07T15:41:03;4.20;99.90
34522;DHT22;25561;48.888;8.736;2022-12-07T15:44:05;3.80;99.90
34522;DHT22;25561;48.888;8.736;2022-12-07T15:47:41;3.70;99.90
34522;DHT22;25561;48.888;8.736;2022-12-07T15:51:05;3.80;99.90
34522;DHT22;25561;48.888;8.736;2022-12-07T15:54:08;3.70;99.90
34522;DHT22;25561;48.888;8.736;2022-12-07T15:57:13;4.00;99.90
34522;DHT22;25561;48.888;8.736;2022-12-07T16:00:15;4.00;99.90
34522;DHT22;25561;48.888;8.736;2022-12-07T16:03:17;3.90;99.90
34522;DHT22;25561;48.888;8.736;2022-12-07T16:06:19;4.00;99.90
34522;DHT22;25561;48.888;8.736;2022-12-07T16:09:21;4.00;99.90
34522;DHT22;25561;48.888;8.736;2022-12-07T16:12:22;4.10;99.90
34522;DHT22;25561;48.888;8.736;2022-12-07T16:15:24;4.10;99.90
34522;DHT22;25561;48.888;8.736;2022-12-07T16:18:27;4.20;99.90
34522;DHT22;25561;48.888;8.736;2022-12-07T16:21:28;4.00;99.90
34522;DHT22;25561;48.888;8.736;2022-12-07T16:24:31;3.90;99.90
34522;DHT22;25561;48.888;8.736;2022-12-07T16:27:34;4.10;99.90
34522;DHT22;25561;48.888;8.736;2022-12-07T16:30:36;4.00;99.90
34522;DHT22;25561;48.888;8.736;2022-12-07T16:33:39;3.90;99.90
34522;DHT22;25561;48.888;8.736;2022-12-07T16:36:41;3.90;99.90
34522;DHT22;25561;48.888;8.736;2022-12-07T16:40:03;4.00;99.90
34522;DHT22;25561;48.888;8.736;2022-12-07T16:43:05;4.00;99.90
34522;DHT22;25561;48.888;8.736;2022-12-07T16:46:08;3.90;99.90
34522;DHT22;25561;48.888;8.736;2022-12-07T16:49:12;4.00;99.90
34522;DHT22;25561;48.888;8.736;2022-12-07T16:52:14;4.00;99.90
34522;DHT22;25561;48.888;8.736;2022-12-07T16:55:21;3.90;99.90
34522;DHT22;25561;48.888;8.736;2022-12-07T16:58:23;3.80;99.90
